createdAt,value
2017-08-20T04:56:00.250Z,948.1
2017-08-20T04:57:08.333Z,948.1
2017-08-20T04:58:16.336Z,948.1
2017-08-20T04:59:24.427Z,948.1
2017-08-20T05:00:32.561Z,948.1
2017-08-20T05:01:40.667Z,948.1
2017-08-20T05:02:48.703Z,948.1
2017-08-20T05:03:57.097Z,948.2
2017-08-20T05:05:04.930Z,948.2
2017-08-20T05:06:12.955Z,948.2
2017-08-20T05:07:21.102Z,948.2
2017-08-20T05:08:29.133Z,948.3
2017-08-20T05:09:37.344Z,948.2
2017-08-20T05:10:45.303Z,948.3
2017-08-20T05:11:53.643Z,948.2
2017-08-20T05:13:01.536Z,948.3
2017-08-20T05:14:09.639Z,948.3
2017-08-20T05:15:17.767Z,948.3
2017-08-20T05:16:25.749Z,948.3
2017-08-20T05:17:33.867Z,948.3
2017-08-20T05:18:41.977Z,948.3
2017-08-20T05:19:50.009Z,948.3
2017-08-20T05:20:58.095Z,948.3
2017-08-20T05:22:06.200Z,948.4
2017-08-20T05:23:14.288Z,948.4
2017-08-20T05:24:22.428Z,948.4
2017-08-20T05:25:30.459Z,948.4
2017-08-20T05:26:38.696Z,948.4
2017-08-20T05:27:46.786Z,948.4
2017-08-20T05:28:55.380Z,948.4
2017-08-20T05:30:03.336Z,948.4
2017-08-20T05:31:11.086Z,948.4
2017-08-20T05:32:18.991Z,948.4
2017-08-20T05:33:27.076Z,948.4
2017-08-20T05:34:35.168Z,948.5
2017-08-20T05:35:43.312Z,948.5
2017-08-20T05:36:51.343Z,948.5
2017-08-20T05:37:59.451Z,948.5
2017-08-20T05:39:07.525Z,948.5
2017-08-20T05:40:15.611Z,948.5
2017-08-20T05:41:23.752Z,948.5
2017-08-20T05:42:31.780Z,948.6
2017-08-20T05:43:39.926Z,948.6
2017-08-20T05:44:47.983Z,948.6
2017-08-20T05:45:56.046Z,948.5
2017-08-20T05:47:04.248Z,948.6
2017-08-20T05:48:12.216Z,948.6
2017-08-20T05:49:20.464Z,948.6
2017-08-20T05:50:28.384Z,948.6
2017-08-20T05:51:36.481Z,948.7
2017-08-20T05:52:44.626Z,948.7
2017-08-20T05:53:52.792Z,948.6
2017-08-20T05:55:01.031Z,948.6
2017-08-20T05:56:08.829Z,948.6
2017-08-20T05:57:16.914Z,948.6
2017-08-20T05:58:25.076Z,948.6
2017-08-20T05:59:34.061Z,948.6
2017-08-20T06:00:41.172Z,948.6
2017-08-20T06:01:49.259Z,948.7
2017-08-20T06:02:57.455Z,948.7
2017-08-20T06:04:05.488Z,948.7
2017-08-20T06:05:13.519Z,948.7
2017-08-20T06:06:21.602Z,948.7
2017-08-20T06:07:30.010Z,948.7
2017-08-20T06:08:37.783Z,948.7
2017-08-20T06:09:45.925Z,948.7
2017-08-20T06:10:53.956Z,948.7
2017-08-20T06:12:02.127Z,948.7
2017-08-20T06:13:10.128Z,948.7
2017-08-20T06:14:18.215Z,948.7
2017-08-20T06:15:26.360Z,948.7
2017-08-20T06:16:34.391Z,948.7
2017-08-20T06:17:42.478Z,948.7
2017-08-20T06:18:50.567Z,948.7
2017-08-20T06:19:59.107Z,948.7
2017-08-20T06:21:06.926Z,948.7
2017-08-20T06:22:16.454Z,948.7
2017-08-20T06:23:23.576Z,948.7
2017-08-20T06:24:31.000Z,948.7
2017-08-20T06:25:40.472Z,948.8
2017-08-20T06:26:47.382Z,948.7
2017-08-20T06:27:55.487Z,948.8
2017-08-20T06:29:03.866Z,948.7
2017-08-20T06:30:11.509Z,948.7
2017-08-20T06:31:19.584Z,948.8
2017-08-20T06:32:27.661Z,948.8
2017-08-20T06:33:35.821Z,948.8
2017-08-20T06:34:43.844Z,948.8
2017-08-20T06:35:52.046Z,948.8
2017-08-20T06:37:00.181Z,948.8
2017-08-20T06:38:09.552Z,948.8
2017-08-20T06:39:16.438Z,948.7
2017-08-20T06:40:24.319Z,948.7
2017-08-20T06:41:32.870Z,948.7
2017-08-20T06:42:40.918Z,948.7
2017-08-20T06:43:50.469Z,948.8
2017-08-20T06:44:56.737Z,948.8
2017-08-20T06:46:05.130Z,948.8
2017-08-20T06:47:12.860Z,948.8
2017-08-20T06:48:20.811Z,948.8
2017-08-20T06:49:29.867Z,948.8
2017-08-20T06:50:37.150Z,948.8
2017-08-20T06:51:45.220Z,948.8
2017-08-20T06:52:53.412Z,948.8
2017-08-20T06:54:01.246Z,948.8
2017-08-20T06:55:09.387Z,948.8
2017-08-20T06:56:18.200Z,948.8
2017-08-20T06:57:25.735Z,948.8
2017-08-20T06:58:33.808Z,948.8
2017-08-20T06:59:41.675Z,948.9
2017-08-20T07:00:50.596Z,948.9
2017-08-20T07:01:58.314Z,948.9
2017-08-20T07:03:05.988Z,948.9
2017-08-20T07:04:14.128Z,948.9
2017-08-20T07:05:22.106Z,948.8
2017-08-20T07:06:30.249Z,948.8
2017-08-20T07:07:38.388Z,948.9
2017-08-20T07:08:46.368Z,948.9
2017-08-20T07:09:54.986Z,948.9
2017-08-20T07:11:02.538Z,948.9
2017-08-20T07:12:12.549Z,948.8
2017-08-20T07:13:18.712Z,948.8
2017-08-20T07:14:26.806Z,948.9
2017-08-20T07:15:34.898Z,948.8
2017-08-20T07:16:42.969Z,948.9
2017-08-20T07:17:51.112Z,948.9
2017-08-20T07:19:00.253Z,948.8
2017-08-20T07:20:07.239Z,948.9
2017-08-20T07:21:15.417Z,948.9
2017-08-20T07:22:23.723Z,948.9
2017-08-20T07:23:31.542Z,948.9
2017-08-20T07:24:40.122Z,948.9
2017-08-20T07:25:47.835Z,948.9
2017-08-20T07:26:55.822Z,948.9
2017-08-20T07:28:03.839Z,948.9
2017-08-20T07:29:12.436Z,948.9
2017-08-20T07:30:20.011Z,949.0
2017-08-20T07:31:28.099Z,949.0
2017-08-20T07:32:36.387Z,949.0
2017-08-20T07:33:44.882Z,949.0
2017-08-20T07:34:54.536Z,949.0
2017-08-20T07:36:00.632Z,949.0
2017-08-20T07:37:08.532Z,949.1
2017-08-20T07:38:16.681Z,949.0
2017-08-20T07:39:24.951Z,949.1
2017-08-20T07:40:34.432Z,949.0
2017-08-20T07:41:41.251Z,949.0
2017-08-20T07:42:48.973Z,949.0
2017-08-20T07:43:58.716Z,949.0
2017-08-20T07:45:05.993Z,949.0
2017-08-20T07:46:13.760Z,949.0
2017-08-20T07:47:21.835Z,949.0
2017-08-20T07:48:29.402Z,949.1
2017-08-20T07:49:37.488Z,949.0
2017-08-20T07:50:45.699Z,949.0
2017-08-20T07:51:53.666Z,949.0
2017-08-20T07:53:01.770Z,949.1
2017-08-20T07:54:09.840Z,949.1
2017-08-20T07:55:17.926Z,949.1
2017-08-20T07:56:26.160Z,949.0
2017-08-20T07:57:34.102Z,949.1
2017-08-20T07:58:42.186Z,949.1
2017-08-20T07:59:50.309Z,949.0
2017-08-20T08:00:58.397Z,949.0
2017-08-20T08:02:06.547Z,949.0
2017-08-20T08:03:14.566Z,949.1
2017-08-20T08:04:22.655Z,949.1
2017-08-20T08:05:30.811Z,949.0
2017-08-20T08:06:38.896Z,949.1
2017-08-20T08:07:47.090Z,949.1
2017-08-20T08:08:55.015Z,949.1
2017-08-20T08:10:03.096Z,949.1
2017-08-20T08:11:11.371Z,949.0
2017-08-20T08:12:19.273Z,949.1
2017-08-20T08:13:27.416Z,949.1
2017-08-20T08:14:35.450Z,949.1
2017-08-20T08:15:43.529Z,949.1
2017-08-20T08:16:51.637Z,949.1
2017-08-20T08:17:59.706Z,949.1
2017-08-20T08:19:07.847Z,949.1
2017-08-20T08:20:15.878Z,949.1
2017-08-20T08:21:24.016Z,949.1
2017-08-20T08:22:32.182Z,949.1
2017-08-20T08:23:40.155Z,949.1
2017-08-20T08:24:48.290Z,949.1
2017-08-20T08:25:56.322Z,949.1
2017-08-20T08:27:04.427Z,949.1
2017-08-20T08:28:12.515Z,949.1
2017-08-20T08:29:20.600Z,949.1
2017-08-20T08:30:28.748Z,949.2
2017-08-20T08:31:36.772Z,949.2
2017-08-20T08:32:45.028Z,949.2
2017-08-20T08:33:53.158Z,949.2
2017-08-20T08:35:01.030Z,949.2
2017-08-20T08:36:09.180Z,949.2
2017-08-20T08:37:17.211Z,949.2
2017-08-20T08:38:25.352Z,949.2
2017-08-20T08:39:33.383Z,949.2
2017-08-20T08:40:41.472Z,949.2
2017-08-20T08:41:49.679Z,949.2
2017-08-20T08:42:57.644Z,949.2
2017-08-20T08:44:05.729Z,949.2
2017-08-20T08:45:13.865Z,949.2
2017-08-20T08:46:21.901Z,949.2
2017-08-20T08:47:30.044Z,949.2
2017-08-20T08:48:38.091Z,949.2
2017-08-20T08:49:46.162Z,949.2
2017-08-20T08:50:54.250Z,949.2
2017-08-20T08:52:02.339Z,949.2
2017-08-20T08:53:10.687Z,949.2
2017-08-20T08:54:18.596Z,949.2
2017-08-20T08:55:26.629Z,949.1
2017-08-20T08:56:34.715Z,949.1
2017-08-20T08:57:42.952Z,949.1
2017-08-20T08:58:50.947Z,949.1
2017-08-20T08:59:58.975Z,949.2
2017-08-20T09:01:07.063Z,949.2
2017-08-20T09:02:15.312Z,949.2
2017-08-20T09:03:23.302Z,949.2
2017-08-20T09:04:31.375Z,949.2
2017-08-20T09:05:39.406Z,949.2
2017-08-20T09:06:47.495Z,949.2
2017-08-20T09:07:55.759Z,949.2
2017-08-20T09:09:03.669Z,949.2
2017-08-20T09:10:11.812Z,949.2
2017-08-20T09:11:19.994Z,949.3
2017-08-20T09:12:28.006Z,949.3
2017-08-20T09:13:36.014Z,949.3
2017-08-20T09:14:44.099Z,949.3
2017-08-20T09:15:52.242Z,949.3
2017-08-20T09:17:00.346Z,949.3
2017-08-20T09:18:08.393Z,949.3
2017-08-20T09:19:16.480Z,949.3
2017-08-20T09:20:24.567Z,949.3
2017-08-20T09:21:32.756Z,949.3
2017-08-20T09:22:40.752Z,949.4
2017-08-20T09:23:48.840Z,949.4
2017-08-20T09:24:56.925Z,949.4
2017-08-20T09:26:05.153Z,949.4
2017-08-20T09:27:13.160Z,949.4
2017-08-20T09:28:21.195Z,949.4
2017-08-20T09:29:29.281Z,949.4
2017-08-20T09:30:37.368Z,949.4
2017-08-20T09:31:45.471Z,949.4
2017-08-20T09:32:53.604Z,949.4
2017-08-20T09:34:01.630Z,949.4
2017-08-20T09:35:09.722Z,949.4
2017-08-20T09:36:17.800Z,949.4
2017-08-20T09:37:25.886Z,949.4
2017-08-20T09:38:34.032Z,949.4
2017-08-20T09:39:42.057Z,949.4
2017-08-20T09:40:50.146Z,949.4
2017-08-20T09:41:58.290Z,949.4
2017-08-20T09:43:06.323Z,949.4
2017-08-20T09:44:14.623Z,949.4
2017-08-20T09:45:22.494Z,949.4
2017-08-20T09:46:30.578Z,949.4
2017-08-20T09:47:38.669Z,949.4
2017-08-20T09:48:46.754Z,949.5
2017-08-20T09:49:54.896Z,949.5
2017-08-20T09:51:02.929Z,949.4
2017-08-20T09:52:11.014Z,949.5
2017-08-20T09:53:19.271Z,949.5
2017-08-20T09:54:27.188Z,949.5
2017-08-20T09:55:35.330Z,949.5
2017-08-20T09:56:43.358Z,949.5
2017-08-20T09:57:51.504Z,949.5
2017-08-20T09:58:59.529Z,949.5
2017-08-20T10:00:07.616Z,949.4
2017-08-20T10:01:15.762Z,949.5
2017-08-20T10:02:23.872Z,949.5
2017-08-20T10:03:31.880Z,949.5
2017-08-20T10:04:39.965Z,949.5
2017-08-20T10:05:48.051Z,949.4
2017-08-20T10:06:56.193Z,949.4
2017-08-20T10:08:04.351Z,949.4
2017-08-20T10:09:12.321Z,949.4
2017-08-20T10:10:20.407Z,949.4
2017-08-20T10:11:28.490Z,949.4
2017-08-20T10:12:36.724Z,949.4
2017-08-20T10:13:44.782Z,949.3
2017-08-20T10:14:52.760Z,949.4
2017-08-20T10:16:00.843Z,949.4
2017-08-20T10:17:08.928Z,949.4
2017-08-20T10:18:17.075Z,949.4
2017-08-20T10:19:25.101Z,949.4
2017-08-20T10:20:33.190Z,949.4
2017-08-20T10:21:41.273Z,949.4
2017-08-20T10:22:49.361Z,949.4
2017-08-20T10:23:57.507Z,949.3
2017-08-20T10:25:05.538Z,949.4
2017-08-20T10:26:13.624Z,949.3
2017-08-20T10:27:21.709Z,949.3
2017-08-20T10:28:29.794Z,949.3
2017-08-20T10:29:37.938Z,949.3
2017-08-20T10:30:45.993Z,949.3
2017-08-20T10:31:54.055Z,949.3
2017-08-20T10:33:02.142Z,949.3
2017-08-20T10:34:10.228Z,949.3
2017-08-20T10:35:18.436Z,949.3
2017-08-20T10:36:26.400Z,949.2
2017-08-20T10:37:34.486Z,949.2
2017-08-20T10:38:42.573Z,949.2
2017-08-20T10:39:50.695Z,949.2
2017-08-20T10:40:58.801Z,949.1
2017-08-20T10:42:06.829Z,949.1
2017-08-20T10:43:14.915Z,949.1
2017-08-20T10:44:23.025Z,949.1
2017-08-20T10:45:31.149Z,949.1
2017-08-20T10:46:39.232Z,949.1
2017-08-20T10:47:47.263Z,949.1
2017-08-20T10:48:55.477Z,949.1
2017-08-20T10:50:03.445Z,949.1
2017-08-20T10:51:11.524Z,949.0
2017-08-20T10:52:19.688Z,949.0
2017-08-20T10:53:27.694Z,949.0
2017-08-20T10:54:35.782Z,949.0
2017-08-20T10:55:43.875Z,949.0
2017-08-20T10:56:51.960Z,949.0
2017-08-20T10:58:00.186Z,948.9
2017-08-20T10:59:08.136Z,948.9
2017-08-20T11:00:16.227Z,948.9
2017-08-20T11:01:24.365Z,948.9
2017-08-20T11:02:32.558Z,948.8
2017-08-20T11:03:40.541Z,948.9
2017-08-20T11:04:48.567Z,948.9
2017-08-20T11:05:56.657Z,948.8
2017-08-20T11:07:04.907Z,948.8
2017-08-20T11:08:12.830Z,948.8
2017-08-20T11:09:20.984Z,948.8
2017-08-20T11:10:28.999Z,948.8
2017-08-20T11:11:37.253Z,948.9
2017-08-20T11:12:45.178Z,948.8
2017-08-20T11:13:53.263Z,948.8
2017-08-20T11:15:01.404Z,948.9
2017-08-20T11:16:09.437Z,948.9
2017-08-20T11:17:17.644Z,948.9
2017-08-20T11:18:25.617Z,948.9
2017-08-20T11:19:33.707Z,948.9
2017-08-20T11:20:42.013Z,948.9
2017-08-20T11:21:49.881Z,948.9
2017-08-20T11:22:57.966Z,948.9
2017-08-20T11:24:06.055Z,949.0
2017-08-20T11:25:14.153Z,948.9
2017-08-20T11:26:22.295Z,948.9
2017-08-20T11:27:30.329Z,948.9
2017-08-20T11:28:38.413Z,948.9
2017-08-20T11:29:46.503Z,948.9
2017-08-20T11:30:54.586Z,948.9
2017-08-20T11:32:02.730Z,948.8
2017-08-20T11:33:10.816Z,948.8
2017-08-20T11:34:18.855Z,948.8
2017-08-20T11:35:26.933Z,948.7
2017-08-20T11:36:35.025Z,948.7
2017-08-20T11:37:43.226Z,948.8
2017-08-20T11:38:51.193Z,948.8
2017-08-20T11:39:59.424Z,948.8
2017-08-20T11:41:07.364Z,948.8
2017-08-20T11:42:15.456Z,948.7
2017-08-20T11:43:23.706Z,948.7
2017-08-20T11:44:31.669Z,948.6
2017-08-20T11:45:39.755Z,948.6
2017-08-20T11:46:47.843Z,948.6
2017-08-20T11:47:55.980Z,948.6
2017-08-20T11:49:04.069Z,948.7
2017-08-20T11:50:12.102Z,948.6
2017-08-20T11:51:20.189Z,948.6
2017-08-20T11:52:28.429Z,948.7
2017-08-20T11:53:36.367Z,948.7
2017-08-20T11:54:44.507Z,948.7
2017-08-20T11:55:52.535Z,948.7
2017-08-20T11:57:00.622Z,948.7
2017-08-20T11:58:08.709Z,948.7
2017-08-20T11:59:16.795Z,948.7
2017-08-20T12:00:24.937Z,948.8
2017-08-20T12:01:32.972Z,948.8
2017-08-20T12:02:41.057Z,948.8
2017-08-20T12:03:49.143Z,948.8
2017-08-20T12:04:57.351Z,948.8
2017-08-20T12:06:05.375Z,948.8
2017-08-20T12:07:13.480Z,948.8
2017-08-20T12:08:21.490Z,948.8
2017-08-20T12:09:29.589Z,948.9
2017-08-20T12:10:37.671Z,948.8
2017-08-20T12:11:45.879Z,948.8
2017-08-20T12:12:53.844Z,948.8
2017-08-20T12:14:01.934Z,948.8
2017-08-20T12:15:10.015Z,948.8
2017-08-20T12:16:18.102Z,948.8
2017-08-20T12:17:26.256Z,948.8
2017-08-20T12:18:34.288Z,948.8
2017-08-20T12:19:42.368Z,948.8
2017-08-20T12:20:50.510Z,948.9
2017-08-20T12:21:58.601Z,948.8
2017-08-20T12:23:06.743Z,948.8
2017-08-20T12:24:14.775Z,948.8
2017-08-20T12:25:22.944Z,948.9
2017-08-20T12:26:30.948Z,948.8
2017-08-20T12:27:39.031Z,948.8
2017-08-20T12:28:47.177Z,948.8
2017-08-20T12:29:55.205Z,948.8
2017-08-20T12:31:03.295Z,948.8
2017-08-20T12:32:11.378Z,948.9
2017-08-20T12:33:19.465Z,948.8
2017-08-20T12:34:27.608Z,948.8
2017-08-20T12:35:35.636Z,948.8
2017-08-20T12:36:43.843Z,948.8
2017-08-20T12:37:51.808Z,948.8
2017-08-20T12:38:59.957Z,948.7
2017-08-20T12:40:08.039Z,948.8
2017-08-20T12:41:16.071Z,948.7
2017-08-20T12:42:24.162Z,948.8
2017-08-20T12:43:32.398Z,948.7
2017-08-20T12:44:40.349Z,948.8
2017-08-20T12:45:48.536Z,948.7
2017-08-20T12:46:56.502Z,948.7
2017-08-20T12:48:04.593Z,948.8
2017-08-20T12:49:12.674Z,948.8
2017-08-20T12:50:20.762Z,948.8
2017-08-20T12:51:28.909Z,948.8
2017-08-20T12:52:36.993Z,948.8
2017-08-20T12:53:45.023Z,948.8
2017-08-20T12:54:53.107Z,948.8
2017-08-20T12:56:01.195Z,948.8
2017-08-20T12:57:09.469Z,948.8
2017-08-20T12:58:17.366Z,948.8
2017-08-20T12:59:25.452Z,948.8
2017-08-20T13:00:33.543Z,948.8
2017-08-20T13:01:41.629Z,948.8
2017-08-20T13:02:49.769Z,948.8
2017-08-20T13:03:57.800Z,948.8
2017-08-20T13:05:05.891Z,948.7
2017-08-20T13:06:14.010Z,948.8
2017-08-20T13:07:22.143Z,948.7
2017-08-20T13:08:30.266Z,948.7
2017-08-20T13:09:38.235Z,948.7
2017-08-20T13:10:46.338Z,948.7
2017-08-20T13:11:54.407Z,948.7
2017-08-20T13:13:02.513Z,948.7
2017-08-20T13:14:10.637Z,948.7
2017-08-20T13:15:18.665Z,948.7
2017-08-20T13:16:26.758Z,948.7
2017-08-20T13:17:34.855Z,948.7
2017-08-20T13:18:42.944Z,948.7
2017-08-20T13:19:51.124Z,948.7
2017-08-20T13:20:59.132Z,948.7
2017-08-20T13:22:07.224Z,948.7
2017-08-20T13:23:15.306Z,948.7
2017-08-20T13:24:23.516Z,948.7
2017-08-20T13:25:31.592Z,948.7
2017-08-20T13:26:39.564Z,948.7
2017-08-20T13:27:47.650Z,948.7
2017-08-20T13:28:55.932Z,948.7
2017-08-20T13:30:03.825Z,948.7
2017-08-20T13:31:11.966Z,948.7
2017-08-20T13:32:19.995Z,948.7
2017-08-20T13:33:28.093Z,948.7
2017-08-20T13:34:36.293Z,948.7
2017-08-20T13:35:44.322Z,948.7
2017-08-20T13:36:52.399Z,948.8
2017-08-20T13:38:00.508Z,948.8
2017-08-20T13:39:08.538Z,948.8
2017-08-20T13:40:16.656Z,948.7
2017-08-20T13:41:25.116Z,948.8
2017-08-20T13:42:33.324Z,948.8
2017-08-20T13:43:41.290Z,948.8
2017-08-20T13:44:49.376Z,948.8
2017-08-20T13:45:57.495Z,948.8
2017-08-20T13:47:05.553Z,948.8
2017-08-20T13:48:13.692Z,948.9
2017-08-20T13:49:21.721Z,948.9
2017-08-20T13:50:29.823Z,948.9
2017-08-20T13:51:37.896Z,948.8
2017-08-20T13:52:45.984Z,948.9
2017-08-20T13:53:54.194Z,948.8
2017-08-20T13:55:02.275Z,948.8
2017-08-20T13:56:10.355Z,948.9
2017-08-20T13:57:18.329Z,948.9
2017-08-20T13:58:26.415Z,948.9
2017-08-20T13:59:34.556Z,948.9
2017-08-20T14:00:42.586Z,948.9
2017-08-20T14:01:50.674Z,948.8
2017-08-20T14:02:58.759Z,948.9
2017-08-20T14:04:06.847Z,948.8
2017-08-20T14:05:14.988Z,948.8
2017-08-20T14:06:23.024Z,948.8
2017-08-20T14:07:31.107Z,948.8
2017-08-20T14:08:39.195Z,948.9
2017-08-20T14:09:47.281Z,948.9
2017-08-20T14:10:55.428Z,948.9
2017-08-20T14:12:03.578Z,948.9
2017-08-20T14:13:11.546Z,948.9
2017-08-20T14:14:19.667Z,948.8
2017-08-20T14:15:27.799Z,948.8
2017-08-20T14:16:35.858Z,948.8
2017-08-20T14:17:43.891Z,948.8
2017-08-20T14:18:51.975Z,948.8
2017-08-20T14:20:00.062Z,948.7
2017-08-20T14:21:08.149Z,948.7
2017-08-20T14:22:16.291Z,948.7
2017-08-20T14:23:24.326Z,948.7
2017-08-20T14:24:32.409Z,948.7
2017-08-20T14:25:40.496Z,948.7
2017-08-20T14:26:48.582Z,948.7
2017-08-20T14:27:56.787Z,948.7
2017-08-20T14:29:04.754Z,948.8
2017-08-20T14:30:12.841Z,948.7
2017-08-20T14:31:20.928Z,948.8
2017-08-20T14:32:29.016Z,948.8
2017-08-20T14:33:37.158Z,948.7
2017-08-20T14:34:45.187Z,948.7
2017-08-20T14:35:53.274Z,948.8
2017-08-20T14:37:01.360Z,948.8
2017-08-20T14:38:09.603Z,948.8
2017-08-20T14:39:17.590Z,948.8
2017-08-20T14:40:25.619Z,948.7
2017-08-20T14:41:33.844Z,948.8
2017-08-20T14:42:41.791Z,948.8
2017-08-20T14:43:49.942Z,948.8
2017-08-20T14:44:58.087Z,948.8
2017-08-20T14:46:06.147Z,948.8
2017-08-20T14:47:14.144Z,948.8
2017-08-20T14:48:22.227Z,948.8
2017-08-20T14:49:30.313Z,948.8
2017-08-20T14:50:38.455Z,948.8
2017-08-20T14:51:46.486Z,948.8
2017-08-20T14:52:54.574Z,948.8
2017-08-20T14:54:02.669Z,948.8
2017-08-20T14:55:10.746Z,948.8
2017-08-20T14:56:18.924Z,948.8
2017-08-20T14:57:26.926Z,948.8
2017-08-20T14:58:35.003Z,948.8
2017-08-20T14:59:43.322Z,948.8
2017-08-20T15:00:51.308Z,948.8
2017-08-20T15:01:59.376Z,948.8
2017-08-20T15:03:07.417Z,948.8
2017-08-20T15:04:15.509Z,948.8
2017-08-20T15:05:23.586Z,948.8
2017-08-20T15:06:31.837Z,948.8
2017-08-20T15:07:41.596Z,948.8
2017-08-20T15:08:47.966Z,948.8
2017-08-20T15:09:55.931Z,948.8
2017-08-20T15:11:04.695Z,948.8
2017-08-20T15:12:12.103Z,948.8
2017-08-20T15:13:20.374Z,948.8
2017-08-20T15:14:28.281Z,948.8
2017-08-20T15:15:36.422Z,948.9
2017-08-20T15:16:44.463Z,948.9
2017-08-20T15:17:52.550Z,948.8
2017-08-20T15:19:00.690Z,948.8
2017-08-20T15:20:08.722Z,948.8
2017-08-20T15:21:16.807Z,948.8
2017-08-20T15:22:25.013Z,948.9
2017-08-20T15:23:33.048Z,948.8
2017-08-20T15:24:41.130Z,948.9
2017-08-20T15:25:49.162Z,948.9
2017-08-20T15:26:57.444Z,948.9
2017-08-20T15:28:05.361Z,948.8
2017-08-20T15:29:13.428Z,948.8
2017-08-20T15:30:21.566Z,948.9
2017-08-20T15:31:29.905Z,948.9
2017-08-20T15:32:37.725Z,948.9
2017-08-20T15:33:45.788Z,948.9
2017-08-20T15:34:53.877Z,948.9
2017-08-20T15:36:02.022Z,948.9
2017-08-20T15:37:10.055Z,948.9
2017-08-20T15:38:18.136Z,948.9
2017-08-20T15:39:26.222Z,948.9
2017-08-20T15:40:34.309Z,948.9
2017-08-20T15:41:42.478Z,948.9
2017-08-20T15:42:50.509Z,948.9
2017-08-20T15:43:58.598Z,948.9
2017-08-20T15:45:06.679Z,948.9
2017-08-20T15:46:15.769Z,948.9
2017-08-20T15:47:23.911Z,948.9
2017-08-20T15:48:31.940Z,948.9
2017-08-20T15:49:40.028Z,948.9
2017-08-20T15:50:48.281Z,948.9
2017-08-20T15:51:56.199Z,948.8
2017-08-20T15:53:04.354Z,948.8
2017-08-20T15:54:12.373Z,948.8
2017-08-20T15:55:20.532Z,948.8
2017-08-20T15:56:28.545Z,948.8
2017-08-20T15:57:36.638Z,948.8
2017-08-20T15:58:44.774Z,948.8
2017-08-20T15:59:52.870Z,948.8
2017-08-20T16:01:00.888Z,948.8
2017-08-20T16:02:08.974Z,948.8
2017-08-20T16:03:17.124Z,948.8
2017-08-20T16:04:25.457Z,948.8
2017-08-20T16:05:33.240Z,948.8
2017-08-20T16:06:41.348Z,948.8
2017-08-20T16:07:49.416Z,948.8
2017-08-20T16:08:57.503Z,948.8
2017-08-20T16:10:05.646Z,948.8
2017-08-20T16:11:13.675Z,948.7
2017-08-20T16:12:21.764Z,948.7
2017-08-20T16:13:29.848Z,948.7
2017-08-20T16:14:37.935Z,948.7
2017-08-20T16:15:46.074Z,948.7
2017-08-20T16:16:54.106Z,948.7
2017-08-20T16:18:02.202Z,948.7
2017-08-20T16:19:10.426Z,948.7
2017-08-20T16:20:18.375Z,948.7
2017-08-20T16:21:26.583Z,948.7
2017-08-20T16:22:34.577Z,948.7
2017-08-20T16:23:42.633Z,948.7
2017-08-20T16:24:50.721Z,948.7
2017-08-20T16:25:58.810Z,948.7
2017-08-20T16:27:07.089Z,948.7
2017-08-20T16:28:14.980Z,948.7
2017-08-20T16:29:23.075Z,948.7
2017-08-20T16:30:31.162Z,948.7
2017-08-20T16:31:39.249Z,948.7
2017-08-20T16:32:47.393Z,948.6
2017-08-20T16:33:55.432Z,948.7
2017-08-20T16:35:03.576Z,948.7
2017-08-20T16:36:11.605Z,948.6
2017-08-20T16:37:19.692Z,948.6
2017-08-20T16:38:27.833Z,948.6
2017-08-20T16:39:35.864Z,948.6
2017-08-20T16:40:43.951Z,948.6
2017-08-20T16:41:52.042Z,948.6
2017-08-20T16:43:00.131Z,948.6
2017-08-20T16:44:08.275Z,948.6
2017-08-20T16:45:16.305Z,948.6
2017-08-20T16:46:24.392Z,948.6
2017-08-20T16:47:32.476Z,948.6
2017-08-20T16:48:40.563Z,948.6
2017-08-20T16:49:48.705Z,948.6
2017-08-20T16:50:56.820Z,948.5
2017-08-20T16:52:04.823Z,948.5
2017-08-20T16:53:12.909Z,948.5
2017-08-20T16:54:20.995Z,948.5
2017-08-20T16:55:29.138Z,948.5
2017-08-20T16:56:37.174Z,948.5
2017-08-20T16:57:45.254Z,948.5
2017-08-20T16:58:53.340Z,948.5
2017-08-20T17:00:01.569Z,948.5
2017-08-20T17:01:09.572Z,948.5
2017-08-20T17:02:17.608Z,948.5
2017-08-20T17:03:25.695Z,948.5
2017-08-20T17:04:33.795Z,948.5
2017-08-20T17:05:41.874Z,948.6
2017-08-20T17:06:50.074Z,948.5
2017-08-20T17:07:58.042Z,948.5
2017-08-20T17:09:06.129Z,948.5
2017-08-20T17:10:14.214Z,948.5
2017-08-20T17:11:22.322Z,948.5
2017-08-20T17:12:30.466Z,948.5
2017-08-20T17:13:38.663Z,948.5
2017-08-20T17:14:46.724Z,948.6
2017-08-20T17:15:54.808Z,948.6
2017-08-20T17:17:02.891Z,948.6
2017-08-20T17:18:11.032Z,948.6
2017-08-20T17:19:19.067Z,948.6
2017-08-20T17:20:27.151Z,948.6
2017-08-20T17:21:35.236Z,948.6
2017-08-20T17:22:43.415Z,948.6
2017-08-20T17:23:51.529Z,948.6
2017-08-20T17:24:59.500Z,948.6
2017-08-20T17:26:07.587Z,948.7
2017-08-20T17:27:15.726Z,948.7
2017-08-20T17:28:23.874Z,948.7
2017-08-20T17:29:31.906Z,948.7
2017-08-20T17:30:40.012Z,948.7
2017-08-20T17:31:48.095Z,948.8
2017-08-20T17:32:56.182Z,948.8
2017-08-20T17:34:04.266Z,948.8
2017-08-20T17:35:12.480Z,948.7
2017-08-20T17:36:20.601Z,948.8
2017-08-20T17:37:28.537Z,948.8
2017-08-20T17:38:36.675Z,948.8
2017-08-20T17:39:44.705Z,948.8
2017-08-20T17:40:52.903Z,948.7
2017-08-20T17:42:00.880Z,948.7
2017-08-20T17:43:08.965Z,948.7
2017-08-20T17:44:17.050Z,948.7
2017-08-20T17:45:25.134Z,948.7
2017-08-20T17:46:33.276Z,948.8
2017-08-20T17:47:41.306Z,948.8
2017-08-20T17:48:49.395Z,948.8
2017-08-20T17:49:57.487Z,948.8
2017-08-20T17:51:05.573Z,948.8
2017-08-20T17:52:13.784Z,948.9
2017-08-20T17:53:21.746Z,948.9
2017-08-20T17:54:29.889Z,948.9
2017-08-20T17:55:37.921Z,948.8
2017-08-20T17:56:46.005Z,948.8
2017-08-20T17:57:54.147Z,948.9
2017-08-20T17:59:02.177Z,948.9
2017-08-20T18:00:10.261Z,948.9
2017-08-20T18:01:18.348Z,949.0
2017-08-20T18:02:26.434Z,949.0
2017-08-20T18:03:34.577Z,949.0
2017-08-20T18:04:42.607Z,949.0
2017-08-20T18:05:50.694Z,949.0
2017-08-20T18:06:58.781Z,949.0
2017-08-20T18:08:06.867Z,949.0
2017-08-20T18:09:15.008Z,949.0
2017-08-20T18:10:23.160Z,949.1
2017-08-20T18:11:31.130Z,949.1
2017-08-20T18:12:39.351Z,949.0
2017-08-20T18:13:47.298Z,949.0
2017-08-20T18:14:55.448Z,949.0
2017-08-20T18:16:03.484Z,949.0
2017-08-20T18:17:11.585Z,949.0
2017-08-20T18:18:19.670Z,949.1
2017-08-20T18:19:27.756Z,949.1
2017-08-20T18:20:35.904Z,949.1
2017-08-20T18:21:43.928Z,949.1
2017-08-20T18:22:52.018Z,949.1
2017-08-20T18:24:00.105Z,949.1
2017-08-20T18:25:08.190Z,949.1
2017-08-20T18:26:16.572Z,949.1
2017-08-20T18:27:24.358Z,949.2
2017-08-20T18:28:32.446Z,949.2
2017-08-20T18:29:40.532Z,949.2
2017-08-20T18:30:48.806Z,949.2
2017-08-20T18:31:56.826Z,949.2
2017-08-20T18:33:04.796Z,949.2
2017-08-20T18:34:12.881Z,949.2
2017-08-20T18:35:21.038Z,949.2
2017-08-20T18:36:29.054Z,949.3
2017-08-20T18:37:37.203Z,949.2
2017-08-20T18:38:45.232Z,949.3
2017-08-20T18:39:53.535Z,949.3
2017-08-20T18:41:01.405Z,949.3
2017-08-20T18:42:09.611Z,949.3
2017-08-20T18:43:17.631Z,949.3
2017-08-20T18:44:25.661Z,949.4
2017-08-20T18:45:33.765Z,949.4
2017-08-20T18:46:41.833Z,949.4
2017-08-20T18:47:49.920Z,949.4
2017-08-20T18:48:58.060Z,949.4
2017-08-20T18:50:06.117Z,949.4
2017-08-20T18:51:14.205Z,949.5
2017-08-20T18:52:22.290Z,949.4
2017-08-20T18:53:30.386Z,949.5
2017-08-20T18:54:38.528Z,949.5
2017-08-20T18:55:46.557Z,949.5
2017-08-20T18:56:54.645Z,949.5
2017-08-20T18:58:02.785Z,949.5
2017-08-20T18:59:10.830Z,949.6
2017-08-20T19:00:18.954Z,949.6
2017-08-20T19:01:26.986Z,949.5
2017-08-20T19:02:35.081Z,949.6
2017-08-20T19:03:43.343Z,949.5
2017-08-20T19:04:51.252Z,949.5
2017-08-20T19:05:59.394Z,949.5
2017-08-20T19:07:07.423Z,949.5
2017-08-20T19:08:15.671Z,949.5
2017-08-20T19:09:23.594Z,949.5
2017-08-20T19:10:31.680Z,949.5
2017-08-20T19:11:40.016Z,949.5
2017-08-20T19:12:47.903Z,949.5
2017-08-20T19:13:55.996Z,949.5
2017-08-20T19:15:04.025Z,949.5
2017-08-20T19:16:12.114Z,949.5
2017-08-20T19:17:20.317Z,949.5
2017-08-20T19:18:28.285Z,949.5
2017-08-20T19:19:36.369Z,949.5
2017-08-20T19:20:44.452Z,949.5
2017-08-20T19:21:52.610Z,949.5
2017-08-20T19:23:00.687Z,949.5
2017-08-20T19:24:08.720Z,949.5
2017-08-20T19:25:16.799Z,949.5
2017-08-20T19:26:24.943Z,949.6
2017-08-20T19:27:32.965Z,949.5
2017-08-20T19:28:41.106Z,949.5
2017-08-20T19:29:49.259Z,949.5
2017-08-20T19:30:57.428Z,949.5
2017-08-20T19:32:05.309Z,949.5